Time;durP1;ratioP1;P1;durP2;ratioP2;P2;SDS_P1;SDS_P2;PMS_P1;PMS_P2;Temp;Humidity;BMP_temperature;BMP_pressure;BME280_temperature;BME280_humidity;BME280_pressure;Samples;Min_cycle;Max_cycle;Signal;HPM_P1;HPM_P2
2023/03/08 00:02:01;;;;;;;;;;;;;;;6.67;100.00;99883.69;4991668;28;19918;-49
2023/03/08 00:04:26;;;;;;;;;;;;;;;7.10;100.00;99896.06;4994292;28;19914;-49
2023/03/08 00:06:52;;;;;;;;;;;;;;;6.87;100.00;99902.44;4990366;28;19971;-51
2023/03/08 00:09:17;;;;;;;;;;;;;;;6.70;100.00;99899.28;4990768;28;19921;-48
2023/03/08 00:11:42;;;;;;;;;;;;;;;6.59;100.00;99899.78;4992281;28;20377;-47
2023/03/08 00:14:07;;;;;;;;;;;;;;;6.03;100.00;99901.34;4990590;28;19925;-51
2023/03/08 00:16:33;;;;;;;;;;;;;;;5.91;100.00;99908.09;4989273;28;19918;-51
2023/03/08 00:18:58;;;;;;;;;;;;;;;6.28;100.00;99906.25;4990289;28;19970;-49
2023/03/08 00:21:24;;;;;;;;;;;;;;;6.52;100.00;99902.38;4991588;28;19918;-52
2023/03/08 00:23:53;;;;;;;;;;;;;;;6.54;100.00;99896.88;4990642;28;19936;-52
2023/03/08 00:26:19;;;;;;;;;;;;;;;6.38;100.00;99901.44;5009969;28;19977;-51
2023/03/08 00:28:45;;;;;;;;;;;;;;;6.29;100.00;99905.25;4984435;28;19936;-53
2023/03/08 00:31:11;;;;;;;;;;;;;;;6.15;100.00;99909.63;4991094;28;19936;-52
2023/03/08 00:33:37;;;;;;;;;;;;;;;6.25;100.00;99902.16;4988825;28;19921;-50
2023/03/08 00:36:02;;;;;;;;;;;;;;;6.64;100.00;99900.00;4987139;28;19985;-54
2023/03/08 00:38:29;;;;;;;;;;;;;;;6.66;100.00;99895.34;4989390;28;19914;-52
2023/03/08 00:40:55;;;;;;;;;;;;;;;6.78;100.00;99892.16;4989113;28;19913;-49
2023/03/08 00:43:20;;;;;;;;;;;;;;;6.58;100.00;99892.81;5005535;28;19922;-55
2023/03/08 00:45:45;;;;;;;;;;;;;;;6.60;100.00;99890.78;4997255;28;19918;-51
2023/03/08 00:48:11;;;;;;;;;;;;;;;6.60;100.00;99888.13;5006572;28;19918;-49
2023/03/08 00:50:37;;;;;;;;;;;;;;;6.68;100.00;99885.31;4990284;28;19914;-50
2023/03/08 00:53:02;;;;;;;;;;;;;;;6.87;100.00;99885.66;4995150;28;19938;-51
2023/03/08 00:55:27;;;;;;;;;;;;;;;6.91;100.00;99881.59;4990118;28;19918;-53
2023/03/08 00:57:53;;;;;;;;;;;;;;;6.50;100.00;99875.19;4985043;28;19940;-49
2023/03/08 01:00:19;;;;;;;;;;;;;;;6.95;100.00;99877.56;5009641;28;19923;-49
2023/03/08 01:02:44;;;;;;;;;;;;;;;6.96;100.00;99865.91;4989148;28;19915;-50
2023/03/08 01:05:09;;;;;;;;;;;;;;;6.81;100.00;99866.03;4980544;28;19921;-49
2023/03/08 01:07:35;;;;;;;;;;;;;;;6.74;100.00;99876.59;4978484;28;19923;-51
2023/03/08 01:10:02;;;;;;;;;;;;;;;6.35;100.00;99864.66;4988542;28;19915;-51
2023/03/08 01:12:28;;;;;;;;;;;;;;;6.12;100.00;99865.69;4968655;28;19926;-48
2023/03/08 01:14:53;;;;;;;;;;;;;;;5.86;100.00;99859.06;4966834;28;20307;-51
2023/03/08 01:17:18;;;;;;;;;;;;;;;6.10;100.00;99853.59;4982804;28;19914;-52
2023/03/08 01:19:44;;;;;;;;;;;;;;;6.12;100.00;99849.75;4971628;28;19914;-50
2023/03/08 01:22:09;;;;;;;;;;;;;;;6.09;100.00;99852.78;4968138;28;19913;-53
2023/03/08 01:24:35;;;;;;;;;;;;;;;5.98;100.00;99853.25;4992927;28;19914;-51
2023/03/08 01:27:00;;;;;;;;;;;;;;;6.05;100.00;99848.88;4983211;28;19924;-50
2023/03/08 01:29:26;;;;;;;;;;;;;;;6.21;100.00;99839.81;4988174;28;19914;-54
2023/03/08 01:31:53;;;;;;;;;;;;;;;6.37;100.00;99840.56;4984419;28;19976;-53
2023/03/08 01:34:19;;;;;;;;;;;;;;;6.45;100.00;99835.09;4990043;28;19914;-52
2023/03/08 01:36:46;;;;;;;;;;;;;;;6.42;100.00;99831.00;5005357;28;19919;-53
2023/03/08 01:39:16;;;;;;;;;;;;;;;6.19;100.00;99825.09;4990772;28;19918;-49
2023/03/08 01:41:42;;;;;;;;;;;;;;;6.02;100.00;99836.78;4988879;28;19920;-53
2023/03/08 01:44:13;;;;;;;;;;;;;;;5.95;100.00;99837.72;4990073;28;19921;-52
2023/03/08 01:46:38;;;;;;;;;;;;;;;6.24;100.00;99826.16;4990106;28;19929;-50
2023/03/08 01:49:16;;;;;;;;;;;;;;;6.10;100.00;99822.56;4978945;28;19914;-50
2023/03/08 01:51:54;;;;;;;;;;;;;;;5.95;100.00;99816.47;4993192;28;20143;-50
2023/03/08 01:54:32;;;;;;;;;;;;;;;6.40;100.00;99805.66;4994378;28;19965;-51
2023/03/08 01:57:00;;;;;;;;;;;;;;;6.24;100.00;99804.91;4975441;28;19922;-50
2023/03/08 01:59:26;;;;;;;;;;;;;;;6.35;100.00;99803.56;4980541;28;19914;-51
2023/03/08 02:01:52;;;;;;;;;;;;;;;6.17;100.00;99793.44;4989127;28;19914;-51
2023/03/08 02:04:19;;;;;;;;;;;;;;;6.37;100.00;99796.22;4981611;28;19929;-48
2023/03/08 02:06:45;;;;;;;;;;;;;;;6.35;100.00;99792.94;5007967;28;19918;-52
2023/03/08 02:09:15;;;;;;;;;;;;;;;6.41;100.00;99791.34;5018558;28;19921;-50
2023/03/08 02:11:41;;;;;;;;;;;;;;;6.62;100.00;99794.97;4987870;28;19913;-52
2023/03/08 02:14:07;;;;;;;;;;;;;;;6.27;100.00;99787.78;5002103;28;19925;-49
2023/03/08 02:16:33;;;;;;;;;;;;;;;6.07;100.00;99790.28;4987555;28;19918;-50
2023/03/08 02:19:01;;;;;;;;;;;;;;;6.38;100.00;99773.16;4977519;28;19925;-50
2023/03/08 02:21:27;;;;;;;;;;;;;;;6.62;100.00;99779.84;4987165;28;19921;-48
2023/03/08 02:23:53;;;;;;;;;;;;;;;7.16;100.00;99772.94;4990074;28;19914;-49
2023/03/08 02:26:19;;;;;;;;;;;;;;;7.20;100.00;99778.69;4991544;28;19918;-52
2023/03/08 02:28:45;;;;;;;;;;;;;;;7.20;100.00;99770.72;4989712;28;19921;-52
2023/03/08 02:31:11;;;;;;;;;;;;;;;7.06;100.00;99763.69;4989279;28;19918;-49
2023/03/08 02:33:37;;;;;;;;;;;;;;;7.18;100.00;99759.47;4992719;28;20001;-51
2023/03/08 02:36:04;;;;;;;;;;;;;;;7.32;100.00;99758.47;4990397;28;19918;-49
2023/03/08 02:38:29;;;;;;;;;;;;;;;7.16;100.00;99754.31;4992287;28;19914;-51
2023/03/08 02:40:57;;;;;;;;;;;;;;;6.56;100.00;99756.72;4989208;28;19914;-51
2023/03/08 02:43:22;;;;;;;;;;;;;;;6.71;100.00;99753.94;4991285;28;19941;-52
2023/03/08 02:45:48;;;;;;;;;;;;;;;6.76;100.00;99756.81;4995960;28;19946;-46
2023/03/08 02:48:14;;;;;;;;;;;;;;;6.62;100.00;99750.63;4993168;28;19922;-51
2023/03/08 02:50:39;;;;;;;;;;;;;;;7.02;100.00;99748.16;4993465;28;19942;-54
2023/03/08 02:53:06;;;;;;;;;;;;;;;7.07;100.00;99757.34;5000675;28;19971;-49
2023/03/08 02:55:34;;;;;;;;;;;;;;;7.25;100.00;99756.78;4984819;28;19922;-51
2023/03/08 02:58:02;;;;;;;;;;;;;;;6.99;100.00;99750.38;4978640;28;20156;-50
2023/03/08 03:00:28;;;;;;;;;;;;;;;6.98;100.00;99748.72;4990106;28;19949;-50
2023/03/08 03:02:54;;;;;;;;;;;;;;;7.39;100.00;99747.03;4969198;28;19914;-52
2023/03/08 03:05:19;;;;;;;;;;;;;;;7.38;100.00;99745.38;4990327;28;19990;-48
2023/03/08 03:07:45;;;;;;;;;;;;;;;7.34;100.00;99742.31;5007723;28;19922;-49
2023/03/08 03:10:15;;;;;;;;;;;;;;;7.35;100.00;99743.13;5023351;28;19925;-50
2023/03/08 03:12:42;;;;;;;;;;;;;;;7.52;100.00;99749.72;4994895;28;19933;-51
2023/03/08 03:15:11;;;;;;;;;;;;;;;6.78;100.00;99748.66;4985096;28;19913;-50
2023/03/08 03:17:39;;;;;;;;;;;;;;;6.62;100.00;99755.94;5012602;28;19926;-52
2023/03/08 03:20:07;;;;;;;;;;;;;;;6.74;100.00;99749.06;4993817;28;19914;-49
2023/03/08 03:22:33;;;;;;;;;;;;;;;6.99;100.00;99745.88;4991826;28;19931;-48
2023/03/08 03:24:59;;;;;;;;;;;;;;;6.80;100.00;99741.31;4992811;28;19982;-52
2023/03/08 03:27:25;;;;;;;;;;;;;;;6.52;100.00;99734.22;4982212;28;19918;-49
2023/03/08 03:29:53;;;;;;;;;;;;;;;6.73;100.00;99718.19;4986384;28;19936;-50
2023/03/08 03:32:19;;;;;;;;;;;;;;;6.87;100.00;99712.91;4983031;28;19936;-54
2023/03/08 03:34:45;;;;;;;;;;;;;;;6.84;100.00;99702.69;4986303;28;19936;-50
2023/03/08 03:37:11;;;;;;;;;;;;;;;7.10;100.00;99709.94;5011383;28;19941;-54
2023/03/08 03:39:39;;;;;;;;;;;;;;;7.38;100.00;99700.16;4984934;28;19914;-51
2023/03/08 03:42:07;;;;;;;;;;;;;;;7.24;100.00;99700.16;4997342;28;19918;-48
2023/03/08 03:44:35;;;;;;;;;;;;;;;7.32;100.00;99691.97;4995778;28;19918;-48
2023/03/08 03:47:02;;;;;;;;;;;;;;;6.88;100.00;99690.63;5038986;28;19918;-47
2023/03/08 03:49:28;;;;;;;;;;;;;;;6.90;100.00;99677.94;5016480;28;19914;-51
2023/03/08 03:51:54;;;;;;;;;;;;;;;6.89;100.00;99676.31;4995438;28;19969;-49
2023/03/08 03:54:24;;;;;;;;;;;;;;;6.72;100.00;99666.06;4967656;28;19910;-47
2023/03/08 03:56:50;;;;;;;;;;;;;;;7.21;100.00;99659.84;4997451;28;19921;-51
2023/03/08 03:59:19;;;;;;;;;;;;;;;7.22;100.00;99670.28;5006163;28;19914;-49
2023/03/08 04:01:45;;;;;;;;;;;;;;;6.69;100.00;99665.63;4986360;28;19936;-51
2023/03/08 04:04:33;;;;;;;;;;;;;;;6.50;100.00;99673.31;4993162;28;19922;-50
2023/03/08 04:07:00;;;;;;;;;;;;;;;6.45;100.00;99665.94;4997934;28;19919;-51
2023/03/08 04:09:31;;;;;;;;;;;;;;;6.53;100.00;99672.09;4975961;28;19941;-50
2023/03/08 04:12:05;;;;;;;;;;;;;;;6.78;100.00;99680.38;5000959;28;19972;-48
2023/03/08 04:14:33;;;;;;;;;;;;;;;6.44;100.00;99674.91;4993087;28;19938;-51
2023/03/08 04:16:59;;;;;;;;;;;;;;;6.44;100.00;99674.91;4992474;28;19922;-51
2023/03/08 04:19:33;;;;;;;;;;;;;;;6.59;100.00;99664.19;4984356;28;19925;-50
2023/03/08 04:21:59;;;;;;;;;;;;;;;6.42;100.00;99649.59;4979164;28;19950;-49
2023/03/08 04:24:32;;;;;;;;;;;;;;;6.77;100.00;99656.66;4993564;28;19949;-48
2023/03/08 04:27:02;;;;;;;;;;;;;;;6.72;100.00;99655.44;4997579;28;19917;-49
2023/03/08 04:29:28;;;;;;;;;;;;;;;6.92;100.00;99654.69;5011440;28;19924;-50
2023/03/08 04:31:58;;;;;;;;;;;;;;;6.41;100.00;99648.75;4987601;28;19938;-52
2023/03/08 04:34:25;;;;;;;;;;;;;;;6.85;100.00;99652.00;4983405;28;20032;-50
2023/03/08 04:36:51;;;;;;;;;;;;;;;7.23;100.00;99640.00;5002216;28;19972;-51
2023/03/08 04:39:17;;;;;;;;;;;;;;;7.10;100.00;99634.66;4984788;28;19937;-48
2023/03/08 04:41:43;;;;;;;;;;;;;;;7.54;100.00;99633.25;5012822;28;19914;-53
2023/03/08 04:44:21;;;;;;;;;;;;;;;7.70;100.00;99628.56;4979457;28;19941;-53
2023/03/08 04:46:49;;;;;;;;;;;;;;;7.78;100.00;99631.00;4995186;28;19922;-52
2023/03/08 04:49:22;;;;;;;;;;;;;;;7.59;100.00;99611.38;4984235;28;19921;-53
2023/03/08 04:51:52;;;;;;;;;;;;;;;7.58;100.00;99609.72;4993653;28;19973;-52
2023/03/08 04:54:17;;;;;;;;;;;;;;;7.72;100.00;99608.66;4992565;28;19914;-51
2023/03/08 04:56:48;;;;;;;;;;;;;;;7.88;100.00;99604.78;4972485;28;19921;-51
2023/03/08 04:59:15;;;;;;;;;;;;;;;7.75;100.00;99596.81;4985338;28;19921;-50
2023/03/08 05:01:41;;;;;;;;;;;;;;;7.78;100.00;99587.59;4994736;28;19914;-51
2023/03/08 05:04:10;;;;;;;;;;;;;;;7.91;100.00;99582.22;4997600;28;19914;-52
2023/03/08 05:06:37;;;;;;;;;;;;;;;8.00;100.00;99581.00;4989645;28;19918;-47
2023/03/08 05:09:03;;;;;;;;;;;;;;;8.02;100.00;99588.75;4995708;28;19922;-49
2023/03/08 05:11:29;;;;;;;;;;;;;;;7.81;100.00;99582.66;4984878;28;19914;-50
2023/03/08 05:13:57;;;;;;;;;;;;;;;7.80;100.00;99578.38;4983564;28;19921;-54
2023/03/08 05:16:24;;;;;;;;;;;;;;;7.78;100.00;99564.44;4988678;28;19936;-54
2023/03/08 05:18:51;;;;;;;;;;;;;;;7.79;100.00;99563.41;4993499;28;19949;-51
2023/03/08 05:21:20;;;;;;;;;;;;;;;7.90;100.00;99553.97;4994493;28;19914;-52
2023/03/08 05:23:50;;;;;;;;;;;;;;;7.87;100.00;99549.91;5004950;28;19925;-51
2023/03/08 05:26:19;;;;;;;;;;;;;;;7.86;100.00;99553.59;4991460;28;19918;-52
2023/03/08 05:28:45;;;;;;;;;;;;;;;7.88;100.00;99543.56;4992552;28;19924;-51
2023/03/08 05:31:11;;;;;;;;;;;;;;;7.91;100.00;99538.84;4989173;28;19925;-50
2023/03/08 05:33:37;;;;;;;;;;;;;;;7.93;100.00;99542.09;4989420;28;19914;-50
2023/03/08 05:36:04;;;;;;;;;;;;;;;7.73;100.00;99542.97;4964405;28;19918;-50
2023/03/08 05:38:29;;;;;;;;;;;;;;;7.76;100.00;99531.91;4972522;28;19942;-53
2023/03/08 05:41:02;;;;;;;;;;;;;;;7.88;100.00;99535.56;4968787;28;19918;-50
2023/03/08 05:43:29;;;;;;;;;;;;;;;7.81;100.00;99518.78;4967321;28;19958;-51
2023/03/08 05:46:05;;;;;;;;;;;;;;;7.98;100.00;99515.66;4969632;28;19949;-50
2023/03/08 05:48:35;;;;;;;;;;;;;;;7.87;100.00;99512.63;4969005;28;19978;-52
2023/03/08 05:51:19;;;;;;;;;;;;;;;7.85;100.00;99512.03;4968465;28;19914;-50
2023/03/08 05:53:44;;;;;;;;;;;;;;;7.91;100.00;99501.56;4971165;28;19918;-50
2023/03/08 05:56:15;;;;;;;;;;;;;;;7.83;100.00;99495.44;4967908;28;19980;-50
2023/03/08 05:58:47;;;;;;;;;;;;;;;8.00;100.00;99490.47;4966299;28;19914;-53
2023/03/08 06:01:17;;;;;;;;;;;;;;;7.69;100.00;99480.56;4964216;28;19953;-50
2023/03/08 06:03:44;;;;;;;;;;;;;;;7.80;100.00;99479.88;4966502;28;19914;-49
2023/03/08 06:06:10;;;;;;;;;;;;;;;7.99;100.00;99480.03;4965390;28;19985;-50
2023/03/08 06:08:36;;;;;;;;;;;;;;;7.86;100.00;99481.72;4968364;28;19936;-48
2023/03/08 06:11:02;;;;;;;;;;;;;;;7.77;100.00;99475.00;4966258;28;19918;-50
2023/03/08 06:13:28;;;;;;;;;;;;;;;7.91;100.00;99470.44;4974800;28;19914;-53
2023/03/08 06:15:55;;;;;;;;;;;;;;;8.13;100.00;99462.13;4968310;28;20389;-51
2023/03/08 06:18:22;;;;;;;;;;;;;;;7.93;100.00;99470.22;4965860;28;19926;-50
2023/03/08 06:21:14;;;;;;;;;;;;;;;8.07;100.00;99457.66;4974339;28;19981;-48
2023/03/08 06:23:40;;;;;;;;;;;;;;;7.89;100.00;99457.34;4973629;28;19914;-50
2023/03/08 06:26:07;;;;;;;;;;;;;;;7.84;100.00;99462.50;4968574;28;19918;-51
2023/03/08 06:28:34;;;;;;;;;;;;;;;8.04;100.00;99458.91;4967092;28;19934;-51
2023/03/08 06:31:01;;;;;;;;;;;;;;;8.13;100.00;99451.47;4970342;28;19937;-49
2023/03/08 06:33:29;;;;;;;;;;;;;;;8.11;100.00;99461.53;4971020;28;19914;-49
2023/03/08 06:35:59;;;;;;;;;;;;;;;8.16;100.00;99459.88;4970906;28;19922;-53
2023/03/08 06:38:26;;;;;;;;;;;;;;;8.03;100.00;99463.41;4973876;28;19914;-51
2023/03/08 06:40:51;;;;;;;;;;;;;;;8.11;100.00;99462.38;4966985;28;19915;-50
2023/03/08 06:43:17;;;;;;;;;;;;;;;8.05;100.00;99457.88;4969577;28;19919;-48
2023/03/08 06:45:43;;;;;;;;;;;;;;;8.26;100.00;99453.25;4971932;28;19922;-48
2023/03/08 06:48:09;;;;;;;;;;;;;;;8.17;100.00;99458.84;4964749;28;19918;-48
2023/03/08 06:50:34;;;;;;;;;;;;;;;8.11;100.00;99459.69;4972765;28;19907;-48
2023/03/08 06:53:00;;;;;;;;;;;;;;;8.29;100.00;99458.97;4956052;28;19914;-51
2023/03/08 06:55:44;;;;;;;;;;;;;;;8.31;100.00;99458.78;4970134;28;19918;-48
2023/03/08 06:58:10;;;;;;;;;;;;;;;8.38;100.00;99461.38;4969007;28;19906;-48
2023/03/08 07:00:36;;;;;;;;;;;;;;;8.38;100.00;99458.72;4968953;28;19975;-49
2023/03/08 07:03:01;;;;;;;;;;;;;;;8.38;100.00;99459.53;4972129;28;20153;-48
2023/03/08 07:05:26;;;;;;;;;;;;;;;8.58;100.00;99461.28;4972049;28;19926;-48
2023/03/08 07:07:52;;;;;;;;;;;;;;;8.59;100.00;99465.59;4972433;28;19917;-49
2023/03/08 07:10:19;;;;;;;;;;;;;;;8.52;100.00;99457.63;4972685;28;19924;-52
2023/03/08 07:12:47;;;;;;;;;;;;;;;8.43;100.00;99453.56;4972824;28;20002;-47
2023/03/08 07:15:13;;;;;;;;;;;;;;;8.40;100.00;99448.66;4975309;28;19957;-51
2023/03/08 07:17:39;;;;;;;;;;;;;;;8.41;100.00;99453.78;4972299;28;19918;-50
2023/03/08 07:20:05;;;;;;;;;;;;;;;8.46;100.00;99450.47;4972046;28;20000;-50
2023/03/08 07:22:31;;;;;;;;;;;;;;;8.61;100.00;99452.84;4969082;28;19918;-49
2023/03/08 07:24:56;;;;;;;;;;;;;;;8.23;100.00;99449.19;4970465;28;19922;-50
2023/03/08 07:27:21;;;;;;;;;;;;;;;8.08;100.00;99444.16;4970450;28;19925;-47
2023/03/08 07:29:47;;;;;;;;;;;;;;;8.45;100.00;99441.66;4970507;28;19993;-47
2023/03/08 07:32:13;;;;;;;;;;;;;;;8.51;100.00;99434.69;4971919;28;20038;-49
2023/03/08 07:34:38;;;;;;;;;;;;;;;8.57;100.00;99441.81;4969402;28;19914;-50
2023/03/08 07:37:03;;;;;;;;;;;;;;;8.42;100.00;99433.25;4991608;28;19914;-47
2023/03/08 07:39:29;;;;;;;;;;;;;;;8.26;100.00;99424.78;4990528;28;19914;-49
2023/03/08 07:41:54;;;;;;;;;;;;;;;8.43;100.00;99418.94;4990001;28;19914;-49
2023/03/08 07:44:20;;;;;;;;;;;;;;;8.25;100.00;99428.47;4992376;28;19924;-48
2023/03/08 07:46:45;;;;;;;;;;;;;;;8.17;100.00;99418.91;4994928;28;19918;-50
2023/03/08 07:49:10;;;;;;;;;;;;;;;8.30;100.00;99425.16;4991309;28;19920;-48
2023/03/08 07:51:36;;;;;;;;;;;;;;;8.45;100.00;99433.66;4993892;28;19936;-51
2023/03/08 07:54:02;;;;;;;;;;;;;;;8.53;100.00;99423.78;4987620;28;19949;-50
2023/03/08 07:56:27;;;;;;;;;;;;;;;8.47;100.00;99420.13;4987430;28;19972;-51
2023/03/08 07:58:54;;;;;;;;;;;;;;;8.53;100.00;99416.63;4988812;28;19914;-50
2023/03/08 08:01:20;;;;;;;;;;;;;;;8.40;100.00;99420.19;4990497;28;19920;-48
2023/03/08 08:03:46;;;;;;;;;;;;;;;8.25;100.00;99417.00;4989216;28;19914;-48
2023/03/08 08:06:11;;;;;;;;;;;;;;;8.47;100.00;99415.59;4988560;28;19923;-47
2023/03/08 08:08:36;;;;;;;;;;;;;;;8.50;100.00;99408.25;4982573;28;19918;-50
2023/03/08 08:11:08;;;;;;;;;;;;;;;8.70;100.00;99408.91;4979717;28;19914;-50
2023/03/08 08:13:33;;;;;;;;;;;;;;;8.84;100.00;99400.78;4986389;28;19940;-48
2023/03/08 08:16:00;;;;;;;;;;;;;;;8.83;100.00;99401.84;4987531;28;19918;-49
2023/03/08 08:18:25;;;;;;;;;;;;;;;8.83;100.00;99404.50;4985776;28;20005;-48
2023/03/08 08:20:58;;;;;;;;;;;;;;;9.07;100.00;99391.34;4983316;28;19936;-48
2023/03/08 08:23:23;;;;;;;;;;;;;;;8.80;100.00;99394.28;4988464;28;19941;-50
2023/03/08 08:25:49;;;;;;;;;;;;;;;9.01;100.00;99388.53;4991706;28;19929;-49
2023/03/08 08:28:14;;;;;;;;;;;;;;;8.95;100.00;99396.59;4988625;28;20004;-51
2023/03/08 08:30:39;;;;;;;;;;;;;;;8.81;100.00;99396.72;4987865;28;19906;-52
2023/03/08 08:33:05;;;;;;;;;;;;;;;8.70;100.00;99398.25;4984430;28;19957;-53
2023/03/08 08:35:30;;;;;;;;;;;;;;;8.88;100.00;99386.81;4983369;28;19918;-50
2023/03/08 08:37:55;;;;;;;;;;;;;;;8.94;100.00;99385.09;4985821;28;19925;-48
2023/03/08 08:40:21;;;;;;;;;;;;;;;9.29;100.00;99379.22;4987737;28;19937;-47
2023/03/08 08:42:46;;;;;;;;;;;;;;;9.08;100.00;99382.31;4989506;28;19953;-48
2023/03/08 08:45:12;;;;;;;;;;;;;;;9.24;100.00;99381.72;4987192;28;19922;-47
2023/03/08 08:47:37;;;;;;;;;;;;;;;9.42;100.00;99372.91;4986642;28;19918;-46
2023/03/08 08:50:02;;;;;;;;;;;;;;;9.23;100.00;99369.44;4992933;28;19914;-52
2023/03/08 08:52:28;;;;;;;;;;;;;;;9.28;100.00;99369.56;4994924;28;19977;-50
2023/03/08 08:54:55;;;;;;;;;;;;;;;9.03;100.00;99374.97;4986746;28;19914;-49
2023/03/08 08:57:21;;;;;;;;;;;;;;;9.33;100.00;99369.72;4984874;28;19920;-53
2023/03/08 08:59:46;;;;;;;;;;;;;;;9.36;100.00;99367.63;4987271;28;19914;-49
2023/03/08 09:02:12;;;;;;;;;;;;;;;9.37;100.00;99369.25;4989414;28;19926;-49
2023/03/08 09:04:37;;;;;;;;;;;;;;;9.49;100.00;99372.00;4988474;28;19914;-52
2023/03/08 09:07:03;;;;;;;;;;;;;;;9.69;100.00;99355.75;4990103;28;19926;-48
2023/03/08 09:09:28;;;;;;;;;;;;;;;9.56;100.00;99357.53;4989440;28;19922;-51
2023/03/08 09:11:53;;;;;;;;;;;;;;;9.40;100.00;99356.31;4987362;28;19917;-48
2023/03/08 09:14:19;;;;;;;;;;;;;;;9.32;100.00;99349.41;4986884;28;19914;-51
2023/03/08 09:16:45;;;;;;;;;;;;;;;9.51;100.00;99349.41;4986716;28;19961;-50
2023/03/08 09:19:11;;;;;;;;;;;;;;;9.38;100.00;99344.22;4989720;28;19914;-52
2023/03/08 09:21:36;;;;;;;;;;;;;;;9.31;100.00;99345.13;4987083;28;20385;-49
2023/03/08 09:24:04;;;;;;;;;;;;;;;9.27;100.00;99340.44;4987526;28;19932;-48
2023/03/08 09:26:30;;;;;;;;;;;;;;;9.36;100.00;99330.28;4985868;28;19925;-46
2023/03/08 09:28:57;;;;;;;;;;;;;;;9.27;100.00;99327.94;4989346;28;19914;-49
2023/03/08 09:31:22;;;;;;;;;;;;;;;9.61;100.00;99322.16;4986445;28;19918;-49
2023/03/08 09:33:50;;;;;;;;;;;;;;;9.36;100.00;99317.78;4987046;28;19997;-49
2023/03/08 09:36:16;;;;;;;;;;;;;;;9.55;100.00;99307.88;4981131;28;19926;-49
2023/03/08 09:38:41;;;;;;;;;;;;;;;9.78;100.00;99302.81;4989530;28;20244;-47
2023/03/08 09:41:24;;;;;;;;;;;;;;;10.14;100.00;99303.72;4991670;28;19921;-52
2023/03/08 09:43:59;;;;;;;;;;;;;;;10.10;100.00;99287.34;4989636;28;19921;-48
2023/03/08 09:46:29;;;;;;;;;;;;;;;10.50;100.00;99285.06;4989472;28;19926;-50
2023/03/08 09:48:59;;;;;;;;;;;;;;;10.37;100.00;99289.56;4988642;28;19953;-49
2023/03/08 09:51:34;;;;;;;;;;;;;;;10.44;100.00;99282.28;4986893;28;19922;-50
2023/03/08 09:54:02;;;;;;;;;;;;;;;10.75;100.00;99284.81;4985378;28;19914;-49
2023/03/08 09:56:30;;;;;;;;;;;;;;;10.89;100.00;99290.72;4985685;28;19944;-49
2023/03/08 09:59:15;;;;;;;;;;;;;;;10.59;100.00;99289.81;4988153;28;19914;-50
2023/03/08 10:01:51;;;;;;;;;;;;;;;10.98;100.00;99278.59;4985294;28;19938;-50
2023/03/08 10:04:27;;;;;;;;;;;;;;;11.67;100.00;99278.81;4986451;28;19914;-50
2023/03/08 10:06:58;;;;;;;;;;;;;;;12.21;100.00;99294.47;4981163;28;19926;-52
2023/03/08 10:09:27;;;;;;;;;;;;;;;12.10;100.00;99288.13;4980786;28;19919;-50
2023/03/08 10:12:01;;;;;;;;;;;;;;;11.78;100.00;99283.31;4983945;28;19990;-49
2023/03/08 10:14:41;;;;;;;;;;;;;;;12.55;100.00;99288.28;4982344;28;19944;-49
2023/03/08 10:17:11;;;;;;;;;;;;;;;12.04;99.08;99286.44;4982588;28;19914;-49
2023/03/08 10:19:40;;;;;;;;;;;;;;;12.14;99.72;99286.59;4982757;28;19914;-54
2023/03/08 10:22:15;;;;;;;;;;;;;;;12.27;97.58;99290.00;4979474;28;19914;-53
2023/03/08 10:24:58;;;;;;;;;;;;;;;11.86;99.47;99290.09;4987172;28;19925;-51
2023/03/08 10:27:26;;;;;;;;;;;;;;;11.96;97.66;99284.94;4978536;28;19917;-48
2023/03/08 10:29:52;;;;;;;;;;;;;;;11.81;97.92;99288.19;4986423;28;19953;-49
2023/03/08 10:32:18;;;;;;;;;;;;;;;11.97;98.46;99280.38;4989558;28;19937;-50
2023/03/08 10:34:44;;;;;;;;;;;;;;;11.76;99.18;99280.03;4986542;28;19914;-50
2023/03/08 10:37:09;;;;;;;;;;;;;;;11.94;99.28;99265.63;4985692;28;19922;-49
2023/03/08 10:39:35;;;;;;;;;;;;;;;12.19;97.40;99262.53;4978378;28;19925;-50
2023/03/08 10:42:05;;;;;;;;;;;;;;;12.99;93.92;99269.53;4986290;28;19978;-49
2023/03/08 10:44:41;;;;;;;;;;;;;;;13.24;93.14;99260.16;4988106;28;19914;-48
2023/03/08 10:47:18;;;;;;;;;;;;;;;13.21;90.60;99252.59;4987083;28;19918;-47
2023/03/08 10:49:46;;;;;;;;;;;;;;;12.64;91.33;99249.22;4982521;28;19914;-49
2023/03/08 10:52:24;;;;;;;;;;;;;;;12.68;88.29;99238.81;4988600;28;19914;-50
2023/03/08 10:55:00;;;;;;;;;;;;;;;12.52;90.95;99241.28;4987139;28;19917;-48
2023/03/08 10:57:26;;;;;;;;;;;;;;;12.34;92.74;99245.06;4985481;28;19937;-50
2023/03/08 10:59:52;;;;;;;;;;;;;;;11.85;95.65;99251.81;4991246;28;19917;-49
2023/03/08 11:02:21;;;;;;;;;;;;;;;12.12;95.76;99245.84;4992017;28;19914;-52
2023/03/08 11:04:51;;;;;;;;;;;;;;;11.56;97.34;99249.19;4985481;28;19925;-53
2023/03/08 11:07:28;;;;;;;;;;;;;;;11.53;97.28;99257.69;4984621;28;19926;-50
2023/03/08 11:10:11;;;;;;;;;;;;;;;11.14;98.00;99249.50;4988274;28;19914;-49
2023/03/08 11:12:38;;;;;;;;;;;;;;;11.12;95.71;99254.28;4988818;28;19914;-54
2023/03/08 11:15:17;;;;;;;;;;;;;;;10.72;100.00;99261.19;4989781;28;19914;-53
2023/03/08 11:18:05;;;;;;;;;;;;;;;11.55;96.86;99263.63;4986513;28;19918;-55
2023/03/08 11:20:36;;;;;;;;;;;;;;;11.26;97.18;99255.59;4985735;28;19914;-52
2023/03/08 11:23:11;;;;;;;;;;;;;;;11.26;96.06;99260.94;5014850;28;19976;-51
2023/03/08 11:25:50;;;;;;;;;;;;;;;10.89;100.00;99256.75;4989778;28;19944;-50
2023/03/08 11:28:19;;;;;;;;;;;;;;;10.97;100.00;99247.56;5004449;28;19914;-53
2023/03/08 11:30:44;;;;;;;;;;;;;;;10.90;98.40;99242.34;4993705;28;19956;-50
2023/03/08 11:33:10;;;;;;;;;;;;;;;11.21;98.42;99241.31;4980347;28;19973;-52
2023/03/08 11:35:53;;;;;;;;;;;;;;;11.02;99.99;99228.94;4986675;28;19945;-48
2023/03/08 11:38:26;;;;;;;;;;;;;;;10.99;99.81;99228.59;4980745;28;19915;-48
2023/03/08 11:41:00;;;;;;;;;;;;;;;10.57;100.00;99237.63;4987375;28;20765;-51
2023/03/08 11:43:29;;;;;;;;;;;;;;;11.14;100.00;99242.25;4986008;28;19914;-50
2023/03/08 11:45:57;;;;;;;;;;;;;;;11.00;98.21;99236.38;4984512;28;19918;-52
2023/03/08 11:48:26;;;;;;;;;;;;;;;11.01;99.89;99232.66;4987096;28;19945;-50
2023/03/08 11:50:52;;;;;;;;;;;;;;;10.92;99.02;99235.94;4981326;28;19936;-46
2023/03/08 11:53:36;;;;;;;;;;;;;;;10.85;100.00;99231.53;4991281;28;19929;-51
2023/03/08 11:56:16;;;;;;;;;;;;;;;10.46;99.82;99226.75;4981960;28;19922;-48
2023/03/08 11:58:50;;;;;;;;;;;;;;;10.57;99.96;99221.59;4986941;28;19914;-49
2023/03/08 12:01:19;;;;;;;;;;;;;;;10.54;99.59;99209.53;4987051;28;19924;-50
2023/03/08 12:03:48;;;;;;;;;;;;;;;10.55;100.00;99202.31;4988006;28;19920;-49
2023/03/08 12:06:19;;;;;;;;;;;;;;;10.95;99.06;99190.00;4989858;28;19957;-51
2023/03/08 12:08:49;;;;;;;;;;;;;;;10.66;98.68;99180.09;4990849;28;19920;-53
2023/03/08 12:11:18;;;;;;;;;;;;;;;10.59;98.37;99201.63;4990692;28;19960;-48
2023/03/08 12:13:46;;;;;;;;;;;;;;;10.67;100.00;99197.75;4988622;28;19948;-52
2023/03/08 12:16:18;;;;;;;;;;;;;;;10.60;99.03;99189.03;4987306;28;19914;-49
2023/03/08 12:19:02;;;;;;;;;;;;;;;10.80;100.00;99172.63;4992908;28;19971;-48
2023/03/08 12:21:47;;;;;;;;;;;;;;;11.38;96.64;99167.22;4989176;28;19929;-51
2023/03/08 12:24:34;;;;;;;;;;;;;;;11.41;96.03;99165.94;4981286;28;19914;-49
2023/03/08 12:27:11;;;;;;;;;;;;;;;11.53;93.85;99185.41;4985117;28;19978;-50
2023/03/08 12:29:50;;;;;;;;;;;;;;;11.69;92.70;99189.16;4986781;28;19915;-50
2023/03/08 12:32:16;;;;;;;;;;;;;;;11.62;94.42;99208.06;4991589;28;19964;-51
2023/03/08 12:34:43;;;;;;;;;;;;;;;11.31;93.21;99212.91;4989566;28;19918;-49
2023/03/08 12:37:25;;;;;;;;;;;;;;;11.42;93.95;99208.53;4988805;28;19952;-50
2023/03/08 12:39:55;;;;;;;;;;;;;;;11.25;93.55;99205.81;4987475;28;19941;-49
2023/03/08 12:42:28;;;;;;;;;;;;;;;11.54;92.69;99184.38;4982173;28;20001;-54
2023/03/08 12:45:04;;;;;;;;;;;;;;;11.58;93.60;99173.97;4986375;28;20384;-50
2023/03/08 12:47:29;;;;;;;;;;;;;;;11.46;94.56;99182.06;4987202;28;19981;-53
2023/03/08 12:49:55;;;;;;;;;;;;;;;10.98;93.80;99173.50;4983886;28;19915;-50
2023/03/08 12:52:20;;;;;;;;;;;;;;;11.20;95.26;99189.66;4990424;28;19914;-53